EGBB

Birmingham International Airport

Birmingham, United Kingdom
METAR EGBB 172120Z 19003KT 9999 FEW044 04/03 Q1021
Observed Flight Rules
Feb-17 @ 21:20 UTC (16 minutes ago) Visual Flight Rules
Wind Visibility Clouds
190° at 3 knots 10,000+ meters
  • Few at 4,400' AGL
Temperatures Readings
Current 4°C / 39°F
Dewpoint 3°C / 37°F
Humidity 93%
Altimeter 30.15" Hg
Pressure 1021 hPa
Elevation 99
METAR EGBB 172120Z 19003KT 9999 FEW044 04/03 Q1021
Observed Flight Rules
Feb-17 @ 21:20 UTC
(16 minutes ago)
VFR
Wind Visibility
190° at 3 knots 10,000+ meters
Clouds
  • Few at 4,400' AGL
Temperature Dewpoint
4°C / 39°F 3°C / 37°F
Humidity Altimeter Pressure
93% 30.15" Hg 1021 hPa